Time;durP1;ratioP1;P1;durP2;ratioP2;P2;SDS_P1;SDS_P2;PMS_P1;PMS_P2;Temp;Humidity;BMP_temperature;BMP_pressure;BME280_temperature;BME280_humidity;BME280_pressure;Samples;Min_cycle;Max_cycle;Signal;HPM_P1;HPM_P2
2021/06/07 06:35:20;;;;;;;4.57;3.47;;;;;;;;;;5084381;23;20057;-47
2021/06/07 06:37:47;;;;;;;3.53;3.17;;;;;;;;;;5001235;28;20026;-45
2021/06/07 06:40:17;;;;;;;6.25;3.28;;;;;;;;;;5010019;28;20034;-44
2021/06/07 06:42:43;;;;;;;4.00;3.30;;;;;;;;;;5010419;28;20045;-46
2021/06/07 06:45:10;;;;;;;4.35;3.40;;;;;;;;;;5012596;28;20079;-45
2021/06/07 06:47:36;;;;;;;4.68;3.00;;;;;;;;;;4993520;28;20133;-49
2021/06/07 06:50:04;;;;;;;4.45;3.08;;;;;;;;;;5011618;28;20300;-48
2021/06/07 06:52:31;;;;;;;3.95;3.38;;;;;;;;;;5011946;28;20168;-47
2021/06/07 06:54:57;;;;;;;4.50;3.28;;;;;;;;;;5011420;28;20025;-48
2021/06/07 06:57:23;;;;;;;4.18;3.35;;;;;;;;;;5011203;28;20084;-45
2021/06/07 06:59:49;;;;;;;5.47;3.30;;;;;;;;;;5006395;28;20486;-48
2021/06/07 07:02:15;;;;;;;4.55;3.05;;;;;;;;;;5010092;28;20341;-53
2021/06/07 07:04:41;;;;;;;4.28;3.22;;;;;;;;;;5011055;28;20094;-50
2021/06/07 07:07:07;;;;;;;5.50;3.20;;;;;;;;;;4992572;28;20026;-49
2021/06/07 07:09:33;;;;;;;3.80;3.03;;;;;;;;;;5011233;28;20061;-49
2021/06/07 07:11:59;;;;;;;3.58;3.08;;;;;;;;;;5011828;28;20081;-48
2021/06/07 07:14:25;;;;;;;3.90;3.13;;;;;;;;;;5011849;28;20014;-46
2021/06/07 07:16:52;;;;;;;4.45;3.00;;;;;;;;;;5010344;28;20037;-49
2021/06/07 07:19:20;;;;;;;;;;;;;;;;;;5012131;28;20046;-49
2021/06/07 07:21:46;;;;;;;6.72;2.80;;;;;;;;;;4993665;28;19920;-46
2021/06/07 07:24:15;;;;;;;3.88;3.05;;;;;;;;;;5011577;28;20478;-47
2021/06/07 07:26:41;;;;;;;4.55;3.17;;;;;;;;;;4997690;28;20026;-49
2021/06/07 07:29:07;;;;;;;3.13;2.40;;;;;;;;;;4993295;28;20129;-48
2021/06/07 07:31:33;;;;;;;4.63;2.90;;;;;;;;;;5011659;28;20451;-47
2021/06/07 07:34:00;;;;;;;6.03;3.08;;;;;;;;;;4993501;28;20054;-48
2021/06/07 07:36:26;;;;;;;4.03;2.60;;;;;;;;;;5011487;28;20030;-48
2021/06/07 07:38:52;;;;;;;4.30;2.80;;;;;;;;;;5010995;28;20137;-47
2021/06/07 07:41:18;;;;;;;3.72;2.70;;;;;;;;;;5011094;28;20322;-48
2021/06/07 07:43:44;;;;;;;3.47;2.80;;;;;;;;;;5011646;28;20049;-48
2021/06/07 07:46:10;;;;;;;3.92;2.47;;;;;;;;;;5011440;28;20389;-49
2021/06/07 07:48:36;;;;;;;3.55;2.80;;;;;;;;;;4986042;28;20101;-46
2021/06/07 07:51:03;;;;;;;3.20;2.40;;;;;;;;;;5010824;28;20076;-52
2021/06/07 07:53:29;;;;;;;3.33;2.92;;;;;;;;;;5011493;28;20029;-48
2021/06/07 07:55:56;;;;;;;4.57;2.63;;;;;;;;;;5011127;28;20030;-47
2021/06/07 07:58:22;;;;;;;2.85;2.42;;;;;;;;;;5009968;28;20497;-47
2021/06/07 08:00:52;;;;;;;3.28;2.33;;;;;;;;;;4992667;28;20046;-48
2021/06/07 08:03:19;;;;;;;3.13;2.20;;;;;;;;;;5010830;28;20439;-47
2021/06/07 08:05:45;;;;;;;3.70;2.30;;;;;;;;;;5009612;28;20033;-46
2021/06/07 08:08:11;;;;;;;2.80;2.20;;;;;;;;;;4991399;28;20060;-46
2021/06/07 08:10:37;;;;;;;3.45;2.22;;;;;;;;;;4992616;28;20037;-47
2021/06/07 08:13:03;;;;;;;3.65;2.00;;;;;;;;;;5010172;28;20389;-51
2021/06/07 08:15:30;;;;;;;3.35;2.17;;;;;;;;;;5010243;28;20109;-52
2021/06/07 08:17:56;;;;;;;3.35;2.40;;;;;;;;;;4973513;28;20189;-49
2021/06/07 08:20:22;;;;;;;4.43;2.47;;;;;;;;;;5003721;28;20046;-49
2021/06/07 08:22:50;;;;;;;3.50;2.40;;;;;;;;;;4990893;28;20112;-46
2021/06/07 08:25:16;;;;;;;2.83;2.13;;;;;;;;;;5010792;28;20030;-50
2021/06/07 08:27:43;;;;;;;3.03;2.30;;;;;;;;;;4997299;28;20113;-49
2021/06/07 08:30:10;;;;;;;3.08;2.15;;;;;;;;;;5009925;28;20037;-43
2021/06/07 08:32:36;;;;;;;2.97;2.10;;;;;;;;;;4990778;28;20465;-44
2021/06/07 08:35:03;;;;;;;2.17;1.92;;;;;;;;;;5007517;28;20108;-44
2021/06/07 08:37:29;;;;;;;2.40;2.00;;;;;;;;;;5009729;28;20022;-45
2021/06/07 08:39:55;;;;;;;3.50;1.90;;;;;;;;;;5009850;28;20109;-48
2021/06/07 08:42:21;;;;;;;2.75;1.95;;;;;;;;;;5010283;28;20026;-46
2021/06/07 08:44:47;;;;;;;2.95;1.85;;;;;;;;;;5010123;28;20045;-45
2021/06/07 08:47:14;;;;;;;2.10;1.80;;;;;;;;;;5009938;28;20465;-45
2021/06/07 08:49:40;;;;;;;3.00;1.83;;;;;;;;;;5009605;28;20026;-44
2021/06/07 08:52:06;;;;;;;2.00;1.80;;;;;;;;;;5009272;28;20033;-49
2021/06/07 08:54:33;;;;;;;3.30;2.10;;;;;;;;;;5014343;28;20029;-46
2021/06/07 08:57:00;;;;;;;2.67;1.90;;;;;;;;;;5009120;28;20213;-46
2021/06/07 08:59:26;;;;;;;2.40;1.63;;;;;;;;;;4991729;28;20094;-44
2021/06/07 09:01:55;;;;;;;2.30;1.80;;;;;;;;;;5009699;28;20109;-47
2021/06/07 09:04:23;;;;;;;2.40;1.80;;;;;;;;;;5016417;28;20464;-48
2021/06/07 09:06:50;;;;;;;2.40;1.83;;;;;;;;;;5012948;28;20040;-48
2021/06/07 09:09:18;;;;;;;2.83;1.70;;;;;;;;;;5009380;28;20038;-47
2021/06/07 09:11:45;;;;;;;2.17;1.70;;;;;;;;;;4988656;28;20026;-48
2021/06/07 09:14:19;;;;;;;4.55;2.00;;;;;;;;;;4993805;28;20034;-49
2021/06/07 09:16:46;;;;;;;2.42;1.75;;;;;;;;;;5010866;28;20030;-49
2021/06/07 09:19:19;;;;;;;1.88;1.48;;;;;;;;;;5009040;28;20036;-47
2021/06/07 09:21:45;;;;;;;2.55;1.80;;;;;;;;;;4990913;28;20022;-50
2021/06/07 09:24:12;;;;;;;2.10;1.60;;;;;;;;;;4990296;28;20128;-52
2021/06/07 09:26:39;;;;;;;1.90;1.50;;;;;;;;;;4997222;28;20125;-50
2021/06/07 09:29:06;;;;;;;2.45;1.80;;;;;;;;;;5001044;28;20018;-48
2021/06/07 09:31:33;;;;;;;1.88;1.50;;;;;;;;;;5008332;28;20097;-52
2021/06/07 09:34:01;;;;;;;2.20;1.77;;;;;;;;;;5008607;28;20810;-55
2021/06/07 09:36:28;;;;;;;2.45;2.03;;;;;;;;;;4998943;28;20067;-51
2021/06/07 09:39:01;;;;;;;2.00;1.73;;;;;;;;;;5009611;28;20422;-47
2021/06/07 09:41:43;;;;;;;2.15;1.48;;;;;;;;;;5008507;28;20057;-47
2021/06/07 09:44:09;;;;;;;2.42;1.70;;;;;;;;;;5008622;28;20022;-49
2021/06/07 09:46:36;;;;;;;3.20;1.90;;;;;;;;;;4992796;28;20029;-49
2021/06/07 09:49:05;;;;;;;2.87;1.63;;;;;;;;;;4990838;28;20056;-48
2021/06/07 09:51:31;;;;;;;2.00;1.60;;;;;;;;;;5007560;28;20030;-47
2021/06/07 09:53:57;;;;;;;3.15;2.03;;;;;;;;;;5008667;28;20034;-49
2021/06/07 09:56:24;;;;;;;1.92;1.60;;;;;;;;;;4990874;28;20021;-48
2021/06/07 09:58:50;;;;;;;2.30;1.60;;;;;;;;;;4990714;28;20037;-48
2021/06/07 10:01:18;;;;;;;2.80;2.03;;;;;;;;;;4990930;28;20491;-46
2021/06/07 10:03:49;;;;;;;2.17;1.73;;;;;;;;;;4978795;28;20041;-51
2021/06/07 10:06:25;;;;;;;2.92;2.00;;;;;;;;;;4997029;28;20517;-46
2021/06/07 10:08:59;;;;;;;2.35;1.60;;;;;;;;;;4991103;28;20022;-45
2021/06/07 10:11:36;;;;;;;1.85;1.55;;;;;;;;;;5009297;28;20109;-47
2021/06/07 10:14:10;;;;;;;3.35;2.00;;;;;;;;;;4985896;28;20133;-47
2021/06/07 10:16:36;;;;;;;3.00;2.15;;;;;;;;;;5008654;28;20026;-46
2021/06/07 10:19:06;;;;;;;2.30;2.10;;;;;;;;;;5009305;28;20470;-47
2021/06/07 10:21:32;;;;;;;2.40;1.70;;;;;;;;;;5009128;28;20034;-45
2021/06/07 10:23:59;;;;;;;2.40;1.88;;;;;;;;;;5007745;28;20435;-47
2021/06/07 10:26:26;;;;;;;2.50;1.70;;;;;;;;;;5013958;28;20026;-45
2021/06/07 10:28:53;;;;;;;2.15;1.95;;;;;;;;;;5010921;28;20033;-43
2021/06/07 10:31:24;;;;;;;1.77;1.58;;;;;;;;;;5016079;28;20033;-44
2021/06/07 10:33:59;;;;;;;2.28;1.80;;;;;;;;;;5013811;28;20063;-46
2021/06/07 10:36:25;;;;;;;2.55;1.83;;;;;;;;;;5012363;28;20062;-45
2021/06/07 10:38:53;;;;;;;2.85;2.10;;;;;;;;;;5010112;28;20159;-46
2021/06/07 10:41:25;;;;;;;3.55;2.33;;;;;;;;;;5012094;28;20100;-45
2021/06/07 10:43:56;;;;;;;3.72;2.15;;;;;;;;;;5000556;28;20028;-47
2021/06/07 10:46:22;;;;;;;3.50;2.15;;;;;;;;;;5024028;28;20111;-47
2021/06/07 10:48:51;;;;;;;4.72;2.53;;;;;;;;;;5012608;28;20456;-45
2021/06/07 10:51:18;;;;;;;6.20;2.80;;;;;;;;;;5017784;28;20470;-45
2021/06/07 10:53:44;;;;;;;3.90;2.33;;;;;;;;;;5011699;28;20037;-45
2021/06/07 10:56:10;;;;;;;5.90;2.40;;;;;;;;;;5011087;28;20026;-46
2021/06/07 10:58:49;;;;;;;4.20;2.30;;;;;;;;;;5011961;28;20112;-46
2021/06/07 11:01:15;;;;;;;3.63;2.08;;;;;;;;;;5010837;28;20080;-45
2021/06/07 11:03:52;;;;;;;4.13;2.15;;;;;;;;;;5011843;28;20029;-46
2021/06/07 11:06:19;;;;;;;3.83;2.10;;;;;;;;;;5011170;28;20029;-45
2021/06/07 11:09:00;;;;;;;2.70;2.00;;;;;;;;;;5011389;28;20037;-45
2021/06/07 11:11:40;;;;;;;4.05;2.38;;;;;;;;;;5001558;28;20596;-46
2021/06/07 11:14:06;;;;;;;3.78;2.05;;;;;;;;;;5011151;28;20465;-46
2021/06/07 11:16:33;;;;;;;4.15;2.10;;;;;;;;;;5010550;28;20036;-46
2021/06/07 11:18:59;;;;;;;3.67;2.17;;;;;;;;;;5011233;28;20119;-45
2021/06/07 11:21:30;;;;;;;2.80;2.08;;;;;;;;;;5011458;28;20257;-44
2021/06/07 11:23:57;;;;;;;2.97;2.00;;;;;;;;;;5010787;28;20018;-45
2021/06/07 11:26:37;;;;;;;3.70;2.22;;;;;;;;;;5011095;28;20022;-46
2021/06/07 11:29:06;;;;;;;2.80;2.00;;;;;;;;;;5010888;28;20474;-46
2021/06/07 11:31:32;;;;;;;4.43;1.95;;;;;;;;;;5010034;28;20109;-48
2021/06/07 11:34:02;;;;;;;3.00;2.08;;;;;;;;;;5001456;28;20069;-49
2021/06/07 11:36:56;;;;;;;2.85;1.70;;;;;;;;;;5010571;28;20037;-46
2021/06/07 11:39:26;;;;;;;2.83;2.03;;;;;;;;;;5009883;28;20487;-46
2021/06/07 11:41:59;;;;;;;2.53;1.80;;;;;;;;;;5010622;28;20168;-47
2021/06/07 11:44:57;;;;;;;3.92;2.13;;;;;;;;;;5010594;28;20845;-47
2021/06/07 11:47:49;;;;;;;3.10;1.85;;;;;;;;;;4966965;28;20042;-46
2021/06/07 11:50:26;;;;;;;2.88;2.10;;;;;;;;;;5010185;28;20026;-46
2021/06/07 11:52:52;;;;;;;;;;;;;;;;;;5002645;28;20146;-50
2021/06/07 11:55:19;;;;;;;3.88;1.90;;;;;;;;;;5009802;28;19921;-47
2021/06/07 11:57:45;;;;;;;2.65;1.75;;;;;;;;;;5010533;28;20029;-49
2021/06/07 12:00:12;;;;;;;2.95;1.85;;;;;;;;;;5010371;28;20176;-48
2021/06/07 12:02:38;;;;;;;3.28;2.05;;;;;;;;;;4992668;28;20026;-47
2021/06/07 12:05:05;;;;;;;2.03;1.63;;;;;;;;;;5009532;28;20024;-43
2021/06/07 12:07:33;;;;;;;2.30;1.83;;;;;;;;;;4991492;28;20091;-42
2021/06/07 12:10:00;;;;;;;2.20;1.80;;;;;;;;;;5011229;28;20061;-41
2021/06/07 12:12:29;;;;;;;3.55;2.03;;;;;;;;;;5010665;28;20053;-42
2021/06/07 12:14:55;;;;;;;3.63;1.88;;;;;;;;;;5011213;28;20382;-42
2021/06/07 12:17:23;;;;;;;3.65;2.00;;;;;;;;;;4995343;28;20421;-43
2021/06/07 12:19:57;;;;;;;3.53;2.30;;;;;;;;;;5009957;28;20117;-42
2021/06/07 12:22:26;;;;;;;2.67;2.17;;;;;;;;;;5010409;28;20033;-42
2021/06/07 12:24:57;;;;;;;3.33;2.03;;;;;;;;;;5010819;28;20450;-42
2021/06/07 12:30:16;;;;;;;3.70;2.08;;;;;;;;;;5010127;28;20137;-52
2021/06/07 12:32:48;;;;;;;3.22;2.05;;;;;;;;;;5009621;28;20021;-48
2021/06/07 12:35:17;;;;;;;2.83;2.08;;;;;;;;;;5004385;28;20054;-49
2021/06/07 12:37:45;;;;;;;3.00;2.20;;;;;;;;;;5003509;28;20018;-48
2021/06/07 12:40:11;;;;;;;4.05;1.95;;;;;;;;;;4990439;28;20097;-47
2021/06/07 12:42:37;;;;;;;2.30;1.70;;;;;;;;;;5009301;28;20018;-48
2021/06/07 12:45:07;;;;;;;3.00;2.05;;;;;;;;;;4993507;28;20407;-49
2021/06/07 12:47:37;;;;;;;3.20;1.90;;;;;;;;;;4997418;28;20140;-50
2021/06/07 12:50:14;;;;;;;3.03;1.83;;;;;;;;;;4992834;28;20028;-46
2021/06/07 12:52:41;;;;;;;5.07;2.30;;;;;;;;;;5009917;28;20132;-50
2021/06/07 12:55:08;;;;;;;3.30;2.13;;;;;;;;;;4992653;28;20030;-47
2021/06/07 12:57:34;;;;;;;3.90;2.00;;;;;;;;;;4992116;28;20029;-49
2021/06/07 13:00:20;;;;;;;2.45;1.67;;;;;;;;;;5010148;28;20037;-50
2021/06/07 13:02:46;;;;;;;3.28;1.85;;;;;;;;;;4997766;28;20084;-48
2021/06/07 13:05:23;;;;;;;2.88;1.98;;;;;;;;;;5010442;28;20098;-48
2021/06/07 13:08:09;;;;;;;3.67;1.85;;;;;;;;;;4992079;28;20022;-48
2021/06/07 13:10:45;;;;;;;4.00;2.22;;;;;;;;;;5009918;28;20129;-48
2021/06/07 13:13:19;;;;;;;2.92;2.03;;;;;;;;;;4991931;28;20091;-47
2021/06/07 13:15:54;;;;;;;2.42;1.45;;;;;;;;;;4995876;28;20029;-49
2021/06/07 13:18:20;;;;;;;2.83;1.60;;;;;;;;;;5009947;28;20032;-47
2021/06/07 13:20:58;;;;;;;3.55;1.65;;;;;;;;;;4992345;28;20487;-48
2021/06/07 13:23:43;;;;;;;2.60;1.92;;;;;;;;;;5009950;28;20047;-52
2021/06/07 13:26:16;;;;;;;3.30;1.73;;;;;;;;;;4994990;28;20092;-48
2021/06/07 13:28:42;;;;;;;2.50;1.77;;;;;;;;;;4988999;28;20033;-50
2021/06/07 13:31:08;;;;;;;2.83;1.52;;;;;;;;;;5007659;28;20342;-49
2021/06/07 13:33:39;;;;;;;2.60;1.75;;;;;;;;;;4972353;28;20061;-51
2021/06/07 13:36:08;;;;;;;2.05;1.73;;;;;;;;;;5005392;28;20077;-49
2021/06/07 13:38:35;;;;;;;2.65;1.83;;;;;;;;;;5000448;28;20018;-49
2021/06/07 13:41:10;;;;;;;2.53;1.40;;;;;;;;;;4992008;28;20037;-51
2021/06/07 13:43:36;;;;;;;2.50;1.70;;;;;;;;;;4992005;28;20399;-46
2021/06/07 13:46:02;;;;;;;2.20;1.55;;;;;;;;;;5009089;28;20249;-48
2021/06/07 13:48:38;;;;;;;2.53;1.70;;;;;;;;;;4992082;28;20033;-48
2021/06/07 13:51:05;;;;;;;3.30;1.73;;;;;;;;;;5009439;28;20423;-49
2021/06/07 13:53:39;;;;;;;3.00;1.45;;;;;;;;;;4992271;28;20049;-45
2021/06/07 13:56:10;;;;;;;2.53;1.70;;;;;;;;;;5007772;28;20152;-48
2021/06/07 13:58:40;;;;;;;2.20;1.70;;;;;;;;;;5008392;28;20136;-51
2021/06/07 14:01:07;;;;;;;2.95;1.80;;;;;;;;;;5009268;28;20458;-46
2021/06/07 14:03:34;;;;;;;3.22;1.73;;;;;;;;;;4992637;28;20017;-48
2021/06/07 14:06:00;;;;;;;;;;;;;;;;;;5014419;28;20029;-48
2021/06/07 14:08:31;;;;;;;2.13;1.50;;;;;;;;;;5013256;28;19944;-49
2021/06/07 14:11:06;;;;;;;1.90;1.70;;;;;;;;;;4995230;28;20570;-47
2021/06/07 14:13:32;;;;;;;2.90;1.77;;;;;;;;;;4995714;28;20037;-48
2021/06/07 14:15:59;;;;;;;1.98;1.42;;;;;;;;;;5013081;28;20037;-47
2021/06/07 14:18:25;;;;;;;2.73;1.60;;;;;;;;;;4994725;28;20161;-48
2021/06/07 14:20:51;;;;;;;1.93;1.57;;;;;;;;;;4995242;28;20148;-50
2021/06/07 14:26:09;;;;;;;3.38;2.28;;;;;;;;;;5012976;28;20064;-47
2021/06/07 14:28:35;;;;;;;2.05;1.58;;;;;;;;;;5004929;28;20022;-49
2021/06/07 14:31:02;;;;;;;2.15;1.48;;;;;;;;;;5012720;28;20466;-48
2021/06/07 14:33:28;;;;;;;2.00;1.30;;;;;;;;;;5012513;28;20056;-47
2021/06/07 14:35:55;;;;;;;2.17;1.70;;;;;;;;;;5009878;28;20125;-49
2021/06/07 14:38:21;;;;;;;;;;;;;;;;;;5012719;28;20494;-48
2021/06/07 14:40:55;;;;;;;2.15;1.50;;;;;;;;;;5012361;28;19941;-51
2021/06/07 14:43:21;;;;;;;2.05;1.73;;;;;;;;;;4999900;28;20029;-51
2021/06/07 14:45:48;;;;;;;2.33;1.70;;;;;;;;;;5012487;28;20136;-54
2021/06/07 14:48:14;;;;;;;;;;;;;;;;;;4995108;28;20045;-47
2021/06/07 14:50:41;;;;;;;1.80;1.52;;;;;;;;;;5012152;28;19905;-45
2021/06/07 14:53:07;;;;;;;2.05;1.80;;;;;;;;;;5011600;28;20032;-47
2021/06/07 14:55:33;;;;;;;2.33;1.65;;;;;;;;;;4987023;28;20115;-47
2021/06/07 14:58:00;;;;;;;1.92;1.63;;;;;;;;;;4985820;28;20051;-50
2021/06/07 15:00:26;;;;;;;1.83;1.52;;;;;;;;;;5011104;28;20060;-49
2021/06/07 15:02:54;;;;;;;3.40;1.70;;;;;;;;;;5011645;28;20041;-42
2021/06/07 15:05:20;;;;;;;2.10;1.52;;;;;;;;;;5012253;28;20467;-44
2021/06/07 15:07:46;;;;;;;2.20;1.77;;;;;;;;;;5001373;28;20475;-49
2021/06/07 15:10:13;;;;;;;2.35;2.15;;;;;;;;;;5012311;28;20264;-48
2021/06/07 15:12:41;;;;;;;2.97;2.23;;;;;;;;;;5012091;28;20033;-48
2021/06/07 15:15:08;;;;;;;2.58;2.08;;;;;;;;;;4994403;28;20026;-48
2021/06/07 15:17:34;;;;;;;2.85;1.95;;;;;;;;;;5001733;28;20085;-49
2021/06/07 15:20:00;;;;;;;2.13;1.77;;;;;;;;;;4997731;28;20479;-49
2021/06/07 15:22:26;;;;;;;2.67;1.90;;;;;;;;;;5011056;28;20567;-47
2021/06/07 15:24:52;;;;;;;1.97;1.70;;;;;;;;;;5000801;28;20132;-48
2021/06/07 15:27:19;;;;;;;2.10;1.85;;;;;;;;;;4994322;28;20022;-45
2021/06/07 15:29:45;;;;;;;2.03;1.73;;;;;;;;;;4993629;28;20114;-48
2021/06/07 15:32:11;;;;;;;3.33;1.90;;;;;;;;;;4993449;28;20674;-47
2021/06/07 15:34:38;;;;;;;2.42;1.83;;;;;;;;;;5010298;28;20058;-50
2021/06/07 15:37:04;;;;;;;1.90;1.67;;;;;;;;;;5010536;28;20026;-52
2021/06/07 15:39:31;;;;;;;2.33;2.00;;;;;;;;;;5011392;28;20552;-52
2021/06/07 15:41:57;;;;;;;2.85;2.22;;;;;;;;;;4993840;28;20517;-53
2021/06/07 15:44:23;;;;;;;2.17;1.90;;;;;;;;;;5011456;28;20030;-50
2021/06/07 15:46:49;;;;;;;1.92;1.70;;;;;;;;;;5010670;28;20061;-50
2021/06/07 15:49:16;;;;;;;2.80;2.10;;;;;;;;;;5009086;28;20037;-51
2021/06/07 15:51:42;;;;;;;2.33;1.67;;;;;;;;;;4993201;28;20360;-52
2021/06/07 15:54:08;;;;;;;3.07;2.17;;;;;;;;;;5010202;28;20490;-52
2021/06/07 15:56:34;;;;;;;2.60;1.60;;;;;;;;;;4993831;28;20053;-49
2021/06/07 15:59:00;;;;;;;2.15;1.73;;;;;;;;;;4985775;28;20029;-45
2021/06/07 16:01:29;;;;;;;3.17;1.80;;;;;;;;;;5010225;28;20554;-45
2021/06/07 16:03:56;;;;;;;4.07;1.98;;;;;;;;;;5019157;28;20486;-47
2021/06/07 16:06:23;;;;;;;4.18;1.88;;;;;;;;;;5015774;28;20030;-46
2021/06/07 16:08:49;;;;;;;2.35;1.90;;;;;;;;;;5010954;28;20026;-50
2021/06/07 16:11:15;;;;;;;3.13;2.13;;;;;;;;;;5010838;28;20025;-47
2021/06/07 16:13:43;;;;;;;4.60;2.00;;;;;;;;;;5011224;28;20025;-46
2021/06/07 16:16:12;;;;;;;4.85;2.30;;;;;;;;;;5010224;28;20375;-45
2021/06/07 16:21:11;;;;;;;3.63;2.22;;;;;;;;;;5010016;28;20116;-48
2021/06/07 16:23:37;;;;;;;4.60;2.50;;;;;;;;;;5010266;28;20057;-49
2021/06/07 16:26:04;;;;;;;4.25;2.17;;;;;;;;;;5009995;28;20030;-50
2021/06/07 16:28:33;;;;;;;3.28;2.33;;;;;;;;;;5010542;28;20033;-55
2021/06/07 16:30:59;;;;;;;3.25;2.05;;;;;;;;;;5004446;28;20564;-45
2021/06/07 16:33:25;;;;;;;3.47;2.28;;;;;;;;;;5008738;28;20030;-45
2021/06/07 16:35:51;;;;;;;4.37;2.13;;;;;;;;;;5008753;28;20046;-45
2021/06/07 16:38:17;;;;;;;4.27;2.53;;;;;;;;;;4990811;28;20344;-44
2021/06/07 20:46:42;;;;;;;3.92;1.90;;;;;;;;;;5626583;23;20419;-47
2021/06/07 20:49:11;;;;;;;2.17;1.42;;;;;;;;;;5010164;28;20426;-45
2021/06/07 20:51:38;;;;;;;2.65;1.20;;;;;;;;;;4990991;28;20064;-46
2021/06/07 20:54:04;;;;;;;2.92;1.45;;;;;;;;;;4991644;28;20026;-46
2021/06/07 20:56:33;;;;;;;2.00;1.20;;;;;;;;;;5011098;28;20397;-46
2021/06/07 20:58:59;;;;;;;3.03;1.13;;;;;;;;;;4993249;28;20073;-47
2021/06/07 21:01:25;;;;;;;2.07;0.97;;;;;;;;;;4992562;28;20061;-45
2021/06/07 21:03:52;;;;;;;1.63;1.00;;;;;;;;;;5007395;28;20037;-45
2021/06/07 21:06:19;;;;;;;2.30;1.00;;;;;;;;;;4985351;28;20029;-48
2021/06/07 21:08:46;;;;;;;1.48;1.00;;;;;;;;;;4993669;28;20041;-45
2021/06/07 21:11:12;;;;;;;;;;;;;;;;;;4992921;28;20030;-48
2021/06/07 21:13:38;;;;;;;3.80;0.70;;;;;;;;;;4989773;28;20015;-46
2021/06/07 21:16:05;;;;;;;3.95;1.02;;;;;;;;;;4983880;28;20038;-46
2021/06/07 21:18:34;;;;;;;3.22;0.80;;;;;;;;;;5010059;28;20114;-45
2021/06/07 21:21:00;;;;;;;5.38;0.70;;;;;;;;;;5009718;28;20089;-46
2021/06/07 21:23:27;;;;;;;3.22;0.77;;;;;;;;;;4981442;28;20034;-48
2021/06/07 21:25:56;;;;;;;2.70;0.57;;;;;;;;;;5000177;28;20026;-48
2021/06/07 21:28:22;;;;;;;3.53;0.73;;;;;;;;;;5006771;28;20320;-47
2021/06/07 21:30:48;;;;;;;1.98;0.63;;;;;;;;;;4994695;28;20049;-47
